DLH804 EDDF-ESSA
Flight info
| Callsign | DLH804 |
|---|---|
| Flight time | N/A |
| Altitude | 37000 |
| Route | MARUN7F MARUN Y150 TOLGI DCT OBATU DCT BERIM DCT ROSOK DCT SONAL DCT VIBAR Z227 NILUG |
| Aircraft | A320/M-SDE3FGHIRWY/LB1 |
Departure
| Time | N/A |
|---|---|
| Airport | Frankfurt Main Airport (EDDF) |
Arrival
| Time | 2026-05-06 13:38 |
|---|---|
| Airport | Stockholm-Arlanda Airport (ESSA) |
| Time | Latitude | Longitude | Altitude | Speed | Heading |
|---|---|---|---|---|---|
| 2026-05-06 13:08 | 57.26001 | 15.92977 | 36976 ft | 496 kts | 37° |
| 2026-05-06 13:09 | 57.28726 | 15.96885 | 36959 ft | 496 kts | 37° |
| 2026-05-06 13:09 | 57.34287 | 16.04876 | 36985 ft | 497 kts | 37° |
| 2026-05-06 13:10 | 57.39789 | 16.12821 | 36986 ft | 497 kts | 37° |
| 2026-05-06 13:10 | 57.45237 | 16.20732 | 37011 ft | 498 kts | 37° |
| 2026-05-06 13:11 | 57.50696 | 16.28674 | 36976 ft | 499 kts | 37° |
| 2026-05-06 13:11 | 57.56170 | 16.36658 | 36991 ft | 500 kts | 37° |
| 2026-05-06 13:12 | 57.61940 | 16.43840 | 36998 ft | 499 kts | 30° |
| 2026-05-06 13:12 | 57.67879 | 16.50726 | 37000 ft | 499 kts | 30° |
| 2026-05-06 13:13 | 57.73732 | 16.57557 | 36988 ft | 499 kts | 30° |
| 2026-05-06 13:13 | 57.79620 | 16.64470 | 37013 ft | 499 kts | 30° |
| 2026-05-06 13:14 | 57.85506 | 16.71406 | 37018 ft | 499 kts | 30° |
| 2026-05-06 13:14 | 57.91422 | 16.78398 | 37020 ft | 499 kts | 30° |
| 2026-05-06 13:15 | 57.97303 | 16.85360 | 37035 ft | 500 kts | 30° |
| 2026-05-06 13:15 | 58.03196 | 16.92379 | 37016 ft | 501 kts | 30° |
| 2026-05-06 13:16 | 58.09073 | 16.99411 | 37018 ft | 501 kts | 30° |
| 2026-05-06 13:16 | 58.12030 | 17.02956 | 36896 ft | 501 kts | 30° |
| 2026-05-06 13:16 | 58.14996 | 17.06515 | 35890 ft | 508 kts | 31° |
| 2026-05-06 13:16 | 58.18007 | 17.10134 | 34931 ft | 515 kts | 31° |
| 2026-05-06 13:17 | 58.21040 | 17.13791 | 33933 ft | 521 kts | 31° |
| 2026-05-06 13:17 | 58.24105 | 17.17498 | 32941 ft | 525 kts | 31° |
| 2026-05-06 13:17 | 58.27187 | 17.21237 | 32131 ft | 523 kts | 31° |
| 2026-05-06 13:17 | 58.30249 | 17.24959 | 31346 ft | 521 kts | 31° |
| 2026-05-06 13:18 | 58.33295 | 17.28667 | 30591 ft | 520 kts | 32° |
| 2026-05-06 13:18 | 58.36344 | 17.32386 | 29813 ft | 519 kts | 32° |
| 2026-05-06 13:18 | 58.39369 | 17.36082 | 28964 ft | 516 kts | 31° |
| 2026-05-06 13:18 | 58.42346 | 17.39726 | 28173 ft | 512 kts | 31° |
| 2026-05-06 13:19 | 58.45343 | 17.43401 | 27388 ft | 508 kts | 30° |
| 2026-05-06 13:19 | 58.48299 | 17.47031 | 26602 ft | 504 kts | 30° |
| 2026-05-06 13:19 | 58.51238 | 17.50649 | 25840 ft | 500 kts | 30° |
| 2026-05-06 13:19 | 58.54152 | 17.54245 | 25108 ft | 496 kts | 30° |
| 2026-05-06 13:20 | 58.57034 | 17.57811 | 24505 ft | 490 kts | 29° |
| 2026-05-06 13:20 | 58.59873 | 17.61333 | 23902 ft | 483 kts | 29° |
| 2026-05-06 13:20 | 58.62669 | 17.64803 | 23264 ft | 477 kts | 29° |
| 2026-05-06 13:20 | 58.65446 | 17.68250 | 22575 ft | 471 kts | 29° |
| 2026-05-06 13:21 | 58.68314 | 17.71161 | 21941 ft | 460 kts | 18° |
| 2026-05-06 13:21 | 58.71239 | 17.73539 | 21288 ft | 455 kts | 18° |
| 2026-05-06 13:21 | 58.74131 | 17.75865 | 20788 ft | 446 kts | 18° |
| 2026-05-06 13:21 | 58.76977 | 17.78140 | 20381 ft | 443 kts | 18° |
| 2026-05-06 13:22 | 58.79830 | 17.80401 | 19972 ft | 442 kts | 18° |
| 2026-05-06 13:22 | 58.82666 | 17.82634 | 19577 ft | 439 kts | 18° |
| 2026-05-06 13:22 | 58.85489 | 17.84844 | 19189 ft | 435 kts | 18° |
| 2026-05-06 13:22 | 58.88285 | 17.87017 | 18799 ft | 432 kts | 18° |
| 2026-05-06 13:23 | 58.91066 | 17.89165 | 18368 ft | 428 kts | 18° |
| 2026-05-06 13:23 | 58.93817 | 17.91276 | 17879 ft | 423 kts | 18° |
| 2026-05-06 13:23 | 58.96542 | 17.93378 | 17339 ft | 419 kts | 18° |
| 2026-05-06 13:23 | 58.99233 | 17.95453 | 16794 ft | 414 kts | 18° |
| 2026-05-06 13:24 | 59.01905 | 17.97505 | 16268 ft | 409 kts | 18° |
| 2026-05-06 13:24 | 59.04534 | 17.99516 | 15747 ft | 404 kts | 18° |
| 2026-05-06 13:24 | 59.07132 | 18.01493 | 15242 ft | 399 kts | 18° |
| 2026-05-06 13:24 | 59.09702 | 18.03435 | 14741 ft | 394 kts | 18° |
| 2026-05-06 13:25 | 59.12245 | 18.05347 | 14249 ft | 389 kts | 18° |
| 2026-05-06 13:25 | 59.14754 | 18.07218 | 13757 ft | 384 kts | 18° |
| 2026-05-06 13:25 | 59.17241 | 18.09062 | 13210 ft | 380 kts | 18° |
| 2026-05-06 13:25 | 59.19697 | 18.10879 | 12699 ft | 376 kts | 18° |
| 2026-05-06 13:26 | 59.22133 | 18.12697 | 12156 ft | 372 kts | 18° |
| 2026-05-06 13:26 | 59.24527 | 18.14505 | 11644 ft | 368 kts | 18° |
| 2026-05-06 13:26 | 59.26903 | 18.16295 | 11254 ft | 365 kts | 18° |
| 2026-05-06 13:26 | 59.29263 | 18.18066 | 10868 ft | 362 kts | 18° |
| 2026-05-06 13:27 | 59.31604 | 18.19820 | 10498 ft | 359 kts | 18° |
| 2026-05-06 13:27 | 59.33933 | 18.21561 | 10125 ft | 357 kts | 18° |
| 2026-05-06 13:27 | 59.36250 | 18.23289 | 9738 ft | 354 kts | 18° |
| 2026-05-06 13:27 | 59.38550 | 18.24997 | 9325 ft | 352 kts | 18° |
| 2026-05-06 13:28 | 59.40834 | 18.26682 | 8911 ft | 349 kts | 18° |
| 2026-05-06 13:28 | 59.43099 | 18.28338 | 8513 ft | 346 kts | 18° |
| 2026-05-06 13:28 | 59.45342 | 18.29967 | 8103 ft | 343 kts | 18° |
| 2026-05-06 13:28 | 59.47575 | 18.31573 | 7722 ft | 341 kts | 18° |
| 2026-05-06 13:29 | 59.49814 | 18.33152 | 7337 ft | 340 kts | 17° |
| 2026-05-06 13:29 | 59.52111 | 18.34009 | 6952 ft | 334 kts | 358° |
| 2026-05-06 13:29 | 59.54384 | 18.33260 | 6568 ft | 331 kts | 344° |
| 2026-05-06 13:29 | 59.56570 | 18.32082 | 6174 ft | 320 kts | 343° |
| 2026-05-06 13:30 | 59.58690 | 18.30922 | 5773 ft | 312 kts | 343° |
| 2026-05-06 13:30 | 59.60760 | 18.29795 | 5373 ft | 305 kts | 343° |
| 2026-05-06 13:30 | 59.62787 | 18.28698 | 5028 ft | 298 kts | 343° |
| 2026-05-06 13:30 | 59.64748 | 18.27634 | 4802 ft | 287 kts | 343° |
| 2026-05-06 13:31 | 59.66654 | 18.26595 | 4591 ft | 283 kts | 343° |
| 2026-05-06 13:31 | 59.68556 | 18.25558 | 4366 ft | 282 kts | 343° |
| 2026-05-06 13:31 | 59.70433 | 18.24536 | 4102 ft | 281 kts | 343° |
| 2026-05-06 13:31 | 59.72328 | 18.23512 | 3836 ft | 280 kts | 343° |
| 2026-05-06 13:32 | 59.74197 | 18.22501 | 3580 ft | 276 kts | 343° |
| 2026-05-06 13:32 | 59.76014 | 18.21501 | 3314 ft | 266 kts | 341° |
| 2026-05-06 13:32 | 59.77661 | 18.20014 | 3039 ft | 257 kts | 329° |
| 2026-05-06 13:32 | 59.78680 | 18.18851 | 2872 ft | 252 kts | 328° |
| 2026-05-06 13:33 | 59.80187 | 18.17090 | 2607 ft | 246 kts | 328° |
| 2026-05-06 13:33 | 59.81591 | 18.15306 | 2491 ft | 232 kts | 316° |
| 2026-05-06 13:33 | 59.82417 | 18.12690 | 2493 ft | 220 kts | 281° |
| 2026-05-06 13:33 | 59.82502 | 18.09776 | 2493 ft | 207 kts | 254° |
| 2026-05-06 13:34 | 59.81824 | 18.07339 | 2497 ft | 201 kts | 227° |
| 2026-05-06 13:34 | 59.80868 | 18.05324 | 2490 ft | 200 kts | 224° |
| 2026-05-06 13:34 | 59.79882 | 18.03388 | 2499 ft | 200 kts | 224° |
| 2026-05-06 13:34 | 59.78848 | 18.01547 | 2493 ft | 196 kts | 213° |
| 2026-05-06 13:35 | 59.77643 | 18.00535 | 2511 ft | 182 kts | 192° |
| 2026-05-06 13:35 | 59.76430 | 18.00095 | 2433 ft | 174 kts | 191° |
| 2026-05-06 13:35 | 59.75250 | 17.99664 | 2237 ft | 171 kts | 191° |
| 2026-05-06 13:35 | 59.74090 | 17.99242 | 2016 ft | 166 kts | 191° |
| 2026-05-06 13:36 | 59.72997 | 17.98843 | 1808 ft | 153 kts | 191° |
| 2026-05-06 13:36 | 59.71970 | 17.98468 | 1595 ft | 148 kts | 191° |
| 2026-05-06 13:36 | 59.70984 | 17.98109 | 1407 ft | 138 kts | 191° |
| 2026-05-06 13:36 | 59.70045 | 17.97766 | 1211 ft | 136 kts | 191° |
| 2026-05-06 13:37 | 59.69124 | 17.97427 | 1046 ft | 135 kts | 191° |
| 2026-05-06 13:37 | 59.68210 | 17.97088 | 840 ft | 132 kts | 191° |
| 2026-05-06 13:37 | 59.67299 | 17.96774 | 645 ft | 133 kts | 191° |
| 2026-05-06 13:37 | 59.66388 | 17.96454 | 476 ft | 133 kts | 193° |
| 2026-05-06 13:38 | 59.65483 | 17.96109 | 316 ft | 133 kts | 192° |
| 2026-05-06 13:38 | 59.64580 | 17.95776 | 158 ft | 131 kts | 193° |
| 2026-05-06 13:38 | 59.63839 | 17.95511 | 145 ft | 77 kts | 191° |
| 2026-05-06 13:38 | 59.63499 | 17.95378 | 144 ft | 35 kts | 197° |
| 2026-05-06 13:39 | 59.63314 | 17.95158 | 139 ft | 27 kts | 221° |
| 2026-05-06 13:39 | 59.63243 | 17.94961 | 138 ft | 16 kts | 285° |
| 2026-05-06 13:39 | 59.63348 | 17.94925 | 138 ft | 17 kts | 10° |
| 2026-05-06 13:39 | 59.63461 | 17.94966 | 138 ft | 16 kts | 10° |
| 2026-05-06 13:40 | 59.63565 | 17.95004 | 138 ft | 14 kts | 10° |
| 2026-05-06 13:40 | 59.63685 | 17.95048 | 138 ft | 23 kts | 11° |
| 2026-05-06 13:40 | 59.63851 | 17.95106 | 138 ft | 25 kts | 9° |
| 2026-05-06 13:40 | 59.64032 | 17.95170 | 138 ft | 28 kts | 9° |
| 2026-05-06 13:41 | 59.64211 | 17.95237 | 138 ft | 24 kts | 10° |
| 2026-05-06 13:41 | 59.64357 | 17.95289 | 138 ft | 22 kts | 11° |
| 2026-05-06 13:41 | 59.64514 | 17.95347 | 138 ft | 24 kts | 11° |
| 2026-05-06 13:41 | 59.64656 | 17.95397 | 138 ft | 20 kts | 9° |
| 2026-05-06 13:42 | 59.64803 | 17.95452 | 138 ft | 23 kts | 10° |
| 2026-05-06 13:42 | 59.64965 | 17.95510 | 138 ft | 25 kts | 8° |
| 2026-05-06 13:42 | 59.65131 | 17.95469 | 138 ft | 25 kts | 347° |
| 2026-05-06 13:42 | 59.65310 | 17.95376 | 138 ft | 27 kts | 346° |
| 2026-05-06 13:43 | 59.65492 | 17.95281 | 138 ft | 26 kts | 345° |
| 2026-05-06 13:43 | 59.65652 | 17.95195 | 138 ft | 21 kts | 345° |
| 2026-05-06 13:43 | 59.65748 | 17.95079 | 138 ft | 17 kts | 286° |
| 2026-05-06 13:43 | 59.65727 | 17.94837 | 138 ft | 19 kts | 255° |
| 2026-05-06 13:44 | 59.65692 | 17.94569 | 138 ft | 21 kts | 256° |
| 2026-05-06 13:44 | 59.65653 | 17.94270 | 138 ft | 23 kts | 256° |
| 2026-05-06 13:44 | 59.65617 | 17.93961 | 138 ft | 23 kts | 253° |
| 2026-05-06 13:44 | 59.65576 | 17.93659 | 138 ft | 22 kts | 256° |
| 2026-05-06 13:45 | 59.65539 | 17.93367 | 138 ft | 20 kts | 256° |
| 2026-05-06 13:45 | 59.65443 | 17.93205 | 138 ft | 2 kts | 209° |
| 2026-05-06 13:45 | 59.65440 | 17.93188 | 138 ft | 4 kts | 252° |
| 2026-05-06 13:46 | 59.65433 | 17.93120 | 138 ft | 6 kts | 257° |
| 2026-05-06 13:46 | 59.65420 | 17.93053 | 138 ft | 3 kts | 224° |
| 2026-05-06 13:46 | 59.65399 | 17.93042 | 138 ft | 3 kts | 191° |
| 2026-05-06 13:46 | 59.65389 | 17.93038 | 138 ft | 0 kts | 191° |
| 2026-05-06 13:47 | 59.65388 | 17.93038 | 138 ft | 0 kts | 191° |